Dades meteomassalio
Diari Summary for Diciembre 6, 2017 Units:  English    Metric   Both
« Previous Day
Next Day »
Diari Semanal Mensual Anual Personalitzat
  Maxima: Minima: Mijana:
Temperatura: TemperatureC °F -7.2 °F -1.3 °F
Rosada: DewpointC °F -8.7 °F -4.8 °F
Humitat: Humidity % 57 % 78 %
Velocitat del vent: WindSpeedKMH mph 0.0 mph 1.1 mph
Racha vent: WindSpeedGustKMH mph - -
Vent:- - SSE
Pressio: PressurehPa in 1036.1 in -
Pluja: 0.3 in    
Historical Graphs
 
 
Tabular Data for Diciembre 6, 2017
Time Temperature Dew Point Pressure Wind Wind Speed Wind Gust Humidity Rainfall Rate (Hourly) solar Conditions
TemperatureC °F DewpointC °F PressurehPa in Calm     Humidity % HourlyPrecipMM in SolarRadiationWatts/m^2 W/m2 Conditions
00:04 -3.3 °F -5.2 °F 1039.8 in Calm     87 % 0.0 in 0.0 W/m2 CLR
00:09 -3.3 °F -5.2 °F 1039.8 in Calm     87 % 0.0 in 0.0 W/m2 CLR
00:14 -3.3 °F -5.1 °F 1039.8 in Calm     88 % 0.0 in 0.0 W/m2 CLR
00:19 -3.9 °F -5.6 °F 1039.8 in Calm     88 % 0.0 in 0.0 W/m2 CLR
00:24 -3.9 °F -5.7 °F 1039.5 in Calm     87 % 0.0 in 0.0 W/m2 CLR
00:29 -3.9 °F -5.7 °F 1039.5 in Calm     87 % 0.0 in 0.0 W/m2 CLR
00:34 -3.9 °F -5.7 °F 1039.5 in Calm     87 % 0.0 in 0.0 W/m2 CLR
00:39 -3.9 °F -5.7 °F 1039.5 in Calm     87 % 0.0 in 0.0 W/m2 CLR
00:40 -3.9 °F -5.7 °F 1039.5 in Calm     87 % 0.0 in 0.0 W/m2 CLR
00:45 -3.9 °F -5.6 °F 1039.5 in Calm     88 % 0.0 in 0.0 W/m2 CLR
00:50 -3.9 °F -5.6 °F 1039.5 in Calm     88 % 0.0 in 0.0 W/m2 CLR
00:55 -3.9 °F -5.6 °F 1039.5 in Calm     88 % 0.0 in 0.0 W/m2 CLR
01:00 -4.4 °F -6.3 °F 1039.5 in Calm     87 % 0.0 in 0.0 W/m2 CLR
01:05 -4.4 °F -6.1 °F 1039.5 in Calm     88 % 0.0 in 0.0 W/m2 CLR
01:10 -4.4 °F -6.1 °F 1039.5 in Calm     88 % 0.0 in 0.0 W/m2 CLR
01:15 -4.4 °F -6.1 °F 1039.5 in Calm     88 % 0.0 in 0.0 W/m2 CLR
01:20 -4.4 °F -6.0 °F 1039.5 in Calm     89 % 0.0 in 0.0 W/m2 CLR
01:25 -4.4 °F -6.1 °F 1039.5 in Calm     88 % 0.0 in 0.0 W/m2 CLR
01:30 -4.4 °F -6.0 °F 1039.5 in Calm     89 % 0.0 in 0.0 W/m2 CLR
01:35 -4.4 °F -6.1 °F 1039.5 in Calm     88 % 0.0 in 0.0 W/m2 CLR
01:40 -5.0 °F -6.6 °F 1039.5 in Calm     89 % 0.0 in 0.0 W/m2 CLR
01:45 -5.0 °F -6.7 °F 1039.2 in Calm     88 % 0.0 in 0.0 W/m2 CLR
01:50 -4.4 °F -6.0 °F 1039.2 in Calm     89 % 0.0 in 0.0 W/m2 CLR
01:55 -5.0 °F -6.6 °F 1039.2 in Calm     89 % 0.0 in 0.0 W/m2 CLR
01:57 -5.0 °F -6.7 °F 1039.2 in Calm     88 % 0.0 in 0.0 W/m2 CLR
02:02 -5.0 °F -6.7 °F 1039.2 in Calm     88 % 0.0 in 0.0 W/m2 CLR
02:07 -5.0 °F -6.7 °F 1039.2 in Calm     88 % 0.0 in 0.0 W/m2 CLR
02:12 -5.0 °F -6.7 °F 1039.2 in Calm     88 % 0.0 in 0.0 W/m2 CLR
02:17 -5.0 °F -6.6 °F 1039.2 in Calm     89 % 0.0 in 0.0 W/m2 CLR
02:22 -5.0 °F -6.6 °F 1039.2 in Calm     89 % 0.0 in 0.0 W/m2 CLR
02:27 -5.0 °F -6.6 °F 1039.2 in Calm     89 % 0.0 in 0.0 W/m2 CLR
02:33 -5.0 °F -6.6 °F 1039.2 in Calm     89 % 0.0 in 0.0 W/m2 CLR
02:37 -5.0 °F -6.6 °F 1039.2 in Calm     89 % 0.0 in 0.0 W/m2 CLR
02:42 -5.0 °F -6.6 °F 1039.2 in Calm     89 % 0.0 in 0.0 W/m2 CLR
02:48 -5.0 °F -6.6 °F 1039.2 in Calm     89 % 0.0 in 0.0 W/m2 CLR
02:53 -5.0 °F -6.6 °F 1039.2 in Calm     89 % 0.0 in 0.0 W/m2 CLR
02:58 -5.0 °F -6.4 °F 1039.2 in Calm     90 % 0.0 in 0.0 W/m2 CLR
03:03 -5.0 °F -6.4 °F 1039.2 in Calm     90 % 0.0 in 0.0 W/m2 CLR
03:08 -5.6 °F -7.1 °F 1039.2 in Calm     89 % 0.0 in 0.0 W/m2 CLR
03:13 -5.0 °F -6.6 °F 1039.2 in Calm     89 % 0.0 in 0.0 W/m2 CLR
03:18 -5.0 °F -6.6 °F 1039.2 in Calm     89 % 0.0 in 0.0 W/m2 CLR
03:23 -5.0 °F -6.4 °F 1039.2 in Calm     90 % 0.0 in 0.0 W/m2 CLR
03:28 -5.0 °F -6.6 °F 1039.2 in Calm     89 % 0.0 in 0.0 W/m2 CLR
03:33 -5.6 °F -7.1 °F 1039.2 in Calm     89 % 0.0 in 0.0 W/m2 CLR
03:38 -5.6 °F -7.1 °F 1039.2 in Calm     89 % 0.0 in 0.0 W/m2 CLR
03:43 -5.6 °F -7.1 °F 1039.2 in Calm     89 % 0.0 in 0.0 W/m2 CLR
03:48 -5.6 °F -6.9 °F 1039.2 in Calm     90 % 0.0 in 0.0 W/m2 CLR
03:53 -5.6 °F -7.1 °F 1039.2 in Calm     89 % 0.0 in 0.0 W/m2 CLR
04:03 -5.6 °F -7.1 °F 1039.2 in Calm     89 % 0.0 in 0.0 W/m2 CLR
04:08 -5.6 °F -7.1 °F 1039.2 in Calm     89 % 0.0 in 0.0 W/m2 CLR
04:13 -5.6 °F -6.9 °F 1039.2 in Calm     90 % 0.0 in 0.0 W/m2 CLR
04:18 -5.6 °F -6.9 °F 1039.2 in Calm     90 % 0.0 in 0.0 W/m2 CLR
04:23 -6.1 °F -7.6 °F 1039.2 in Calm     89 % 0.0 in 0.0 W/m2 CLR
04:28 -6.1 °F -7.6 °F 1039.2 in Calm     89 % 0.0 in 0.0 W/m2 CLR
04:33 -6.1 °F -7.6 °F 1038.8 in Calm     89 % 0.0 in 0.0 W/m2 CLR
04:38 -6.1 °F -7.6 °F 1038.8 in Calm     89 % 0.0 in 0.0 W/m2 CLR
04:43 -5.6 °F -7.1 °F 1038.8 in Calm     89 % 0.0 in 0.0 W/m2 CLR
04:48 -6.1 °F -7.5 °F 1038.8 in Calm     90 % 0.0 in 0.0 W/m2 CLR
04:53 -6.1 °F -7.5 °F 1038.8 in Calm     90 % 0.0 in 0.0 W/m2 CLR
04:58 -5.6 °F -7.1 °F 1038.8 in Calm     89 % 0.0 in 0.0 W/m2 CLR
05:03 -5.6 °F -7.1 °F 1038.8 in Calm     89 % 0.0 in 0.0 W/m2 CLR
05:08 -5.6 °F -7.1 °F 1038.8 in Calm     89 % 0.0 in 0.0 W/m2 CLR
05:13 -6.1 °F -7.5 °F 1038.8 in Calm     90 % 0.0 in 0.0 W/m2 CLR
05:18 -6.1 °F -7.5 °F 1038.8 in Calm     90 % 0.0 in 0.0 W/m2 CLR
05:23 -6.1 °F -7.5 °F 1038.8 in Calm     90 % 0.0 in 0.0 W/m2 CLR
05:28 -6.1 °F -7.5 °F 1038.8 in Calm     90 % 0.0 in 0.0 W/m2 CLR
05:33 -6.1 °F -7.5 °F 1039.2 in Calm     90 % 0.0 in 0.0 W/m2 CLR
05:38 -6.1 °F -7.5 °F 1039.2 in Calm     90 % 0.0 in 0.0 W/m2 CLR
05:43 -6.1 °F -7.6 °F 1038.8 in Calm     89 % 0.0 in 0.0 W/m2 CLR
05:48 -6.1 °F -7.6 °F 1038.8 in Calm     89 % 0.0 in 0.0 W/m2 CLR
05:53 -6.1 °F -7.5 °F 1038.8 in Calm     90 % 0.0 in 0.0 W/m2 CLR
05:58 -6.1 °F -7.5 °F 1038.8 in Calm     90 % 0.0 in 0.0 W/m2 CLR
06:03 -6.1 °F -7.5 °F 1038.8 in Calm     90 % 0.0 in 0.0 W/m2 CLR
06:08 -6.1 °F -7.5 °F 1038.8 in Calm     90 % 0.0 in 0.0 W/m2 CLR
06:13 -6.1 °F -7.5 °F 1038.8 in Calm     90 % 0.0 in 0.0 W/m2 CLR
06:18 -6.1 °F -7.5 °F 1038.8 in Calm     90 % 0.0 in 0.0 W/m2 CLR
06:23 -6.7 °F -8.2 °F 1038.8 in Calm     89 % 0.0 in 0.0 W/m2 CLR
06:28 -6.7 °F -8.2 °F 1038.8 in Calm     89 % 0.0 in 0.0 W/m2 CLR
06:29 -6.7 °F -8.1 °F 1038.8 in Calm     90 % 0.0 in 0.0 W/m2 CLR
06:34 -6.7 °F -8.2 °F 1038.8 in Calm     89 % 0.0 in 0.0 W/m2 CLR
06:44 -6.7 °F -8.1 °F 1038.8 in Calm     90 % 0.0 in 0.0 W/m2 CLR
06:49 -6.7 °F -8.1 °F 1038.8 in Calm     90 % 0.0 in 0.0 W/m2 CLR
06:54 -6.7 °F -8.1 °F 1038.8 in Calm     90 % 0.0 in 0.0 W/m2 CLR
06:59 -7.2 °F -8.6 °F 1038.8 in Calm     90 % 0.0 in 0.0 W/m2 CLR
07:04 -7.2 °F -8.7 °F 1038.8 in Calm     89 % 0.0 in 0.0 W/m2 CLR
07:09 -7.2 °F -8.6 °F 1038.8 in Calm     90 % 0.0 in 0.0 W/m2 CLR
07:14 -6.7 °F -8.1 °F 1039.2 in Calm     90 % 0.0 in 0.0 W/m2 CLR
07:19 -6.7 °F -8.1 °F 1038.8 in Calm     90 % 0.0 in 0.0 W/m2 CLR
07:24 -6.7 °F -8.2 °F 1038.8 in Calm     89 % 0.0 in 0.0 W/m2 CLR
07:29 -7.2 °F -8.6 °F 1038.8 in Calm     90 % 0.0 in 0.0 W/m2 CLR
07:34 -7.2 °F -8.6 °F 1038.8 in Calm     90 % 0.0 in 0.0 W/m2 CLR
07:39 -7.2 °F -8.6 °F 1038.8 in Calm     90 % 0.0 in 0.0 W/m2 CLR
07:44 -6.7 °F -8.1 °F 1038.8 in Calm     90 % 0.0 in 0.0 W/m2 CLR
07:49 -6.7 °F -8.1 °F 1038.8 in Calm     90 % 0.0 in 0.0 W/m2 CLR
07:54 -6.7 °F -8.1 °F 1038.8 in Calm     90 % 0.0 in 0.0 W/m2 CLR
07:59 -6.7 °F -8.1 °F 1038.8 in Calm     90 % 0.0 in 0.0 W/m2 CLR
08:04 -6.7 °F -8.1 °F 1038.8 in Calm     90 % 0.0 in 0.0 W/m2 OVC
08:09 -6.7 °F -8.1 °F 1039.2 in Calm     90 % 0.0 in 0.0 W/m2 OVC
08:14 -6.7 °F -7.9 °F 1039.2 in Calm     91 % 0.0 in 5.0 W/m2 OVC
08:19 -6.7 °F -8.1 °F 1039.2 in Calm     90 % 0.0 in 7.0 W/m2 BKN
08:24 -6.7 °F -8.1 °F 1039.2 in Calm     90 % 0.0 in 11.0 W/m2 BKN
08:29 -7.2 °F -8.6 °F 1039.2 in Calm     90 % 0.0 in 14.0 W/m2 BKN
08:34 -6.7 °F -8.1 °F 1039.2 in Calm     90 % 0.0 in 16.0 W/m2 BKN
08:39 -6.7 °F -8.1 °F 1039.2 in Calm     90 % 0.0 in 19.0 W/m2 BKN
08:44 -6.7 °F -8.1 °F 1039.2 in Calm     90 % 0.0 in 30.0 W/m2 BKN
08:49 -6.7 °F -8.1 °F 1039.2 in Calm     90 % 0.0 in 40.0 W/m2 BKN
08:54 -6.7 °F -8.1 °F 1039.2 in Calm     90 % 0.0 in 49.0 W/m2 SCT
08:59 -6.7 °F -8.1 °F 1039.2 in Calm     90 % 0.0 in 60.0 W/m2 SCT
09:04 -6.7 °F -8.2 °F 1039.2 in Calm     89 % 0.0 in 69.0 W/m2 FEW
09:09 -6.7 °F -8.1 °F 1039.2 in Calm     90 % 0.0 in 76.0 W/m2 FEW
09:19 -6.7 °F -8.2 °F 1039.5 in Calm     89 % 0.0 in 105.0 W/m2 CLR
09:24 -6.1 °F -7.6 °F 1039.5 in Calm     89 % 0.0 in 118.0 W/m2 CLR
09:29 -5.6 °F -7.2 °F 1039.5 in Calm     88 % 0.0 in 151.0 W/m2 CLR
09:34 -5.6 °F -7.2 °F 1039.5 in Calm     88 % 0.0 in 172.0 W/m2 CLR
09:39 -5.6 °F -7.2 °F 1039.5 in Calm     88 % 0.0 in 165.0 W/m2 CLR
09:44 -5.0 °F -6.8 °F 1039.5 in Calm     87 % 0.0 in 169.0 W/m2 CLR
09:49 -5.0 °F -6.7 °F 1039.2 in Calm     88 % 0.0 in 181.0 W/m2 CLR
09:54 -4.4 °F -6.3 °F 1039.5 in Calm     87 % 0.0 in 127.0 W/m2 CLR
09:59 -4.4 °F -6.6 °F 1039.5 in Calm     85 % 0.0 in 209.0 W/m2 CLR
10:04 -4.4 °F -6.6 °F 1039.5 in Calm     85 % 0.3 in 95.0 W/m2 RA
10:09 -3.9 °F -6.3 °F 1039.5 in Calm     83 % 0.3 in 230.0 W/m2 CLR
10:14 -3.9 °F -6.5 °F 1039.5 in Calm     82 % 0.3 in 243.0 W/m2 CLR
10:19 -3.3 °F -6.1 °F 1039.5 in Calm     81 % 0.3 in 253.0 W/m2 CLR
10:24 -3.3 °F -6.1 °F 1039.5 in Calm     81 % 0.3 in 265.0 W/m2 CLR
10:34 -2.2 °F -5.1 °F 1039.8 in Calm     81 % 0.3 in 290.0 W/m2 CLR
10:39 -2.2 °F -5.4 °F 1039.5 in Calm     79 % 0.3 in 302.0 W/m2 CLR
10:44 -1.7 °F -4.8 °F 1039.5 in Calm     79 % 0.3 in 311.0 W/m2 CLR
10:49 -1.1 °F -4.3 °F 1039.5 in Calm     79 % 0.3 in 318.0 W/m2 CLR
10:54 -1.1 °F -4.3 °F 1039.5 in Calm     79 % 0.3 in 327.0 W/m2 CLR
10:59 -0.6 °F -3.9 °F 1039.5 in Calm     78 % 0.3 in 341.0 W/m2 CLR
11:04 0.0 °F -3.7 °F 1039.5 in Calm     76 % 0.0 in 348.0 W/m2 CLR
11:09 0.0 °F -3.9 °F 1039.5 in Calm     75 % 0.0 in 357.0 W/m2 CLR
11:14 0.6 °F -3.7 °F 1039.5 in Calm     73 % 0.0 in 360.0 W/m2 CLR
11:19 1.1 °F -3.4 °F 1039.5 in Calm     72 % 0.0 in 367.0 W/m2 CLR
11:24 1.7 °F -3.1 °F 1039.5 in Calm     71 % 0.0 in 378.0 W/m2 CLR
11:29 2.2 °F -2.7 °F 1039.5 in Calm     70 % 0.0 in 387.0 W/m2 CLR
11:34 2.8 °F -2.2 °F 1039.5 in ENE 1.9 mph   70 % 0.0 in 394.0 W/m2 CLR
11:39 3.3 °F -1.8 °F 1039.2 in Calm     69 % 0.0 in 399.0 W/m2 CLR
11:44 3.9 °F -1.5 °F 1039.2 in Calm     68 % 0.0 in 406.0 W/m2 CLR
11:49 4.4 °F -0.9 °F 1039.2 in Calm     68 % 0.0 in 408.0 W/m2 CLR
11:54 4.4 °F -1.2 °F 1039.2 in Calm     67 % 0.0 in 413.0 W/m2 CLR
11:59 5.0 °F -0.6 °F 1039.2 in Calm     67 % 0.0 in 417.0 W/m2 CLR
12:04 5.0 °F -0.8 °F 1038.8 in Calm     66 % 0.0 in 422.0 W/m2 CLR
12:09 5.6 °F -0.3 °F 1038.8 in Calm     66 % 0.0 in 425.0 W/m2 CLR
12:14 5.6 °F -0.5 °F 1038.8 in ESE 1.6 mph 1.6 mph 65 % 0.0 in 429.0 W/m2 CLR
12:19 5.6 °F -0.5 °F 1038.8 in East 1.9 mph   65 % 0.0 in 431.0 W/m2 CLR
12:24 6.1 °F -0.2 °F 1038.8 in East 1.9 mph 1.9 mph 64 % 0.0 in 434.0 W/m2 CLR
12:29 6.1 °F -0.4 °F 1038.5 in SE 3.7 mph 3.7 mph 63 % 0.0 in 434.0 W/m2 CLR
12:34 6.1 °F -0.4 °F 1038.5 in East 1.9 mph   63 % 0.0 in 436.0 W/m2 CLR
12:39 6.1 °F -0.4 °F 1038.5 in ESE 5.6 mph 5.6 mph 63 % 0.0 in 438.0 W/m2 CLR
12:44 6.1 °F -0.2 °F 1038.5 in East 6.4 mph 6.4 mph 64 % 0.0 in 439.0 W/m2 CLR
12:49 6.7 °F 0.1 °F 1038.1 in ENE 5.6 mph 5.6 mph 63 % 0.0 in 439.0 W/m2 CLR
12:54 6.7 °F 0.1 °F 1038.1 in ENE 5.6 mph 5.6 mph 63 % 0.0 in 438.0 W/m2 CLR
12:55 6.7 °F 0.1 °F 1038.1 in East 4.8 mph 4.8 mph 63 % 0.0 in 439.0 W/m2 CLR
13:00 6.7 °F 0.1 °F 1038.1 in East 3.7 mph 3.7 mph 63 % 0.0 in 439.0 W/m2 CLR
13:05 6.7 °F -0.1 °F 1038.1 in ENE 5.6 mph   62 % 0.0 in 438.0 W/m2 CLR
13:10 6.7 °F -0.1 °F 1038.1 in ENE 5.6 mph 5.6 mph 62 % 0.0 in 436.0 W/m2 CLR
13:15 7.2 °F 0.4 °F 1038.1 in East 6.4 mph 6.4 mph 62 % 0.0 in 436.0 W/m2 CLR
13:20 7.2 °F 0.2 °F 1037.8 in ENE 5.6 mph 5.6 mph 61 % 0.0 in 429.0 W/m2 CLR
13:25 7.2 °F 0.2 °F 1037.8 in Calm     61 % 0.0 in 431.0 W/m2 CLR
13:30 7.2 °F 0.2 °F 1037.8 in Calm     61 % 0.0 in 427.0 W/m2 CLR
13:35 7.2 °F 0.2 °F 1037.8 in East 5.6 mph 5.6 mph 61 % 0.0 in 424.0 W/m2 CLR
13:40 7.8 °F 0.5 °F 1037.8 in East 6.4 mph 6.4 mph 60 % 0.0 in 420.0 W/m2 CLR
13:45 7.8 °F 0.7 °F 1037.8 in ENE 1.9 mph   61 % 0.0 in 417.0 W/m2 CLR
13:50 7.8 °F 0.5 °F 1037.8 in ENE 5.6 mph 5.6 mph 60 % 0.0 in 411.0 W/m2 CLR
13:55 7.2 °F -0.1 °F 1037.8 in East 1.9 mph 1.9 mph 60 % 0.0 in 408.0 W/m2 CLR
14:05 7.8 °F 0.3 °F 1037.5 in ENE 5.6 mph 5.6 mph 59 % 0.0 in 397.0 W/m2 CLR
14:10 7.8 °F 0.3 °F 1037.5 in East 5.6 mph 5.6 mph 59 % 0.0 in 394.0 W/m2 CLR
14:11 7.8 °F 0.3 °F 1037.5 in East 5.6 mph 5.6 mph 59 % 0.0 in 394.0 W/m2 CLR
14:16 7.8 °F 0.3 °F 1037.5 in ENE 5.6 mph 5.6 mph 59 % 0.0 in 387.0 W/m2 CLR
14:21 7.8 °F 0.3 °F 1037.1 in East 1.6 mph 1.6 mph 59 % 0.0 in 381.0 W/m2 CLR
14:26 8.3 °F 0.8 °F 1037.1 in ENE 5.6 mph 5.6 mph 59 % 0.0 in 374.0 W/m2 CLR
14:31 8.3 °F 0.6 °F 1037.1 in East 5.6 mph 5.6 mph 58 % 0.0 in 367.0 W/m2 CLR
14:36 8.3 °F 0.6 °F 1037.1 in ENE 5.6 mph 5.6 mph 58 % 0.0 in 360.0 W/m2 CLR
14:41 8.3 °F 0.6 °F 1036.8 in East 3.2 mph 3.2 mph 58 % 0.0 in 353.0 W/m2 CLR
14:46 8.3 °F 0.6 °F 1036.8 in Calm     58 % 0.0 in 345.0 W/m2 CLR
14:51 8.3 °F 0.6 °F 1036.8 in East 3.7 mph 3.7 mph 58 % 0.0 in 336.0 W/m2 CLR
14:56 8.3 °F 0.6 °F 1036.8 in Calm     58 % 0.0 in 327.0 W/m2 CLR
15:01 8.3 °F 0.6 °F 1036.8 in Calm     58 % 0.0 in 316.0 W/m2 CLR
15:06 8.9 °F 1.1 °F 1036.8 in East 3.7 mph 3.7 mph 58 % 0.0 in 306.0 W/m2 CLR
15:11 8.9 °F 0.8 °F 1036.8 in ENE 3.7 mph 3.7 mph 57 % 0.0 in 297.0 W/m2 CLR
15:16 8.9 °F 1.1 °F 1036.8 in Calm     58 % 0.0 in 287.0 W/m2 CLR
15:21 8.9 °F 1.1 °F 1036.8 in East 5.6 mph 5.6 mph 58 % 0.0 in 276.0 W/m2 CLR
15:26 8.9 °F 1.1 °F 1036.8 in Calm     58 % 0.0 in 264.0 W/m2 CLR
15:31 8.9 °F 1.1 °F 1036.8 in ENE 8.0 mph 8.0 mph 58 % 0.0 in 251.0 W/m2 CLR
15:36 8.9 °F 1.1 °F 1036.5 in ENE 8.0 mph 8.0 mph 58 % 0.0 in 239.0 W/m2 CLR
15:41 8.9 °F 1.1 °F 1036.5 in ENE 1.9 mph   58 % 0.0 in 223.0 W/m2 CLR
15:46 8.9 °F 1.1 °F 1036.5 in ENE 5.6 mph 5.6 mph 58 % 0.0 in 211.0 W/m2 CLR
15:51 8.9 °F 1.1 °F 1036.5 in NE 5.6 mph 5.6 mph 58 % 0.0 in 199.0 W/m2 CLR
15:56 8.3 °F 0.6 °F 1036.5 in Calm     58 % 0.0 in 185.0 W/m2 CLR
16:01 8.3 °F 0.6 °F 1036.5 in Calm     58 % 0.0 in 169.0 W/m2 CLR
16:06 8.3 °F 0.6 °F 1036.5 in ENE 6.4 mph 6.4 mph 58 % 0.0 in 156.0 W/m2 CLR
16:11 8.3 °F 0.6 °F 1036.5 in ENE 5.6 mph 5.6 mph 58 % 0.0 in 142.0 W/m2 CLR
16:16 7.8 °F 0.3 °F 1036.5 in Calm     59 % 0.0 in 130.0 W/m2 CLR
16:21 7.8 °F 0.3 °F 1036.5 in Calm     59 % 0.0 in 116.0 W/m2 CLR
16:26 7.8 °F 0.3 °F 1036.5 in Calm   0.2 mph 59 % 0.0 in 102.0 W/m2 CLR
16:31 7.2 °F -0.5 °F 1036.5 in Calm     58 % 0.0 in 90.0 W/m2 CLR
16:36 7.2 °F -0.3 °F 1036.5 in Calm     59 % 0.0 in 77.0 W/m2 FEW
16:41 6.7 °F -0.8 °F 1036.5 in Calm     59 % 0.0 in 65.0 W/m2 SCT
16:46 6.1 °F -1.3 °F 1036.5 in Calm     59 % 0.0 in 51.0 W/m2 SCT
16:51 6.1 °F -1.3 °F 1036.5 in Calm     59 % 0.0 in 42.0 W/m2 SCT
16:56 5.6 °F -1.6 °F 1036.5 in Calm     60 % 0.0 in 33.0 W/m2 BKN
17:01 5.0 °F -2.1 °F 1036.5 in Calm     60 % 0.0 in 25.0 W/m2 BKN
17:06 4.4 °F -2.7 °F 1036.5 in Calm     60 % 0.0 in 18.0 W/m2 BKN
17:07 4.4 °F -2.7 °F 1036.1 in Calm     60 % 0.0 in 16.0 W/m2 BKN
17:12 4.4 °F -2.7 °F 1036.5 in Calm     60 % 0.0 in 14.0 W/m2 BKN
17:17 3.9 °F -2.9 °F 1036.5 in Calm     61 % 0.0 in 12.0 W/m2 BKN
17:22 3.3 °F -3.3 °F 1036.5 in Calm     62 % 0.0 in 9.0 W/m2 BKN
17:27 2.8 °F -3.8 °F 1036.5 in Calm     62 % 0.0 in 7.0 W/m2 BKN
17:32 2.8 °F -3.6 °F 1036.5 in Calm     63 % 0.0 in 5.0 W/m2 OVC
17:42 2.2 °F -3.9 °F 1036.5 in Calm     64 % 0.0 in 0.0 W/m2 CLR
17:47 2.2 °F -3.9 °F 1036.5 in Calm     64 % 0.0 in 0.0 W/m2 CLR
17:52 2.8 °F -3.2 °F 1036.5 in Calm     65 % 0.0 in 0.0 W/m2 CLR
17:57 2.8 °F -2.9 °F 1036.5 in Calm     66 % 0.0 in 0.0 W/m2 CLR
18:02 2.8 °F -2.9 °F 1036.5 in Calm     66 % 0.0 in 0.0 W/m2 CLR
18:07 2.2 °F -3.7 °F 1036.5 in Calm     65 % 0.0 in 0.0 W/m2 CLR
18:12 2.2 °F -3.7 °F 1036.5 in Calm     65 % 0.0 in 0.0 W/m2 CLR
18:17 2.2 °F -3.3 °F 1036.5 in Calm     67 % 0.0 in 0.0 W/m2 CLR
18:22 1.7 °F -3.4 °F 1036.5 in Calm     69 % 0.0 in 0.0 W/m2 CLR
18:27 1.7 °F -3.2 °F 1036.5 in Calm     70 % 0.0 in 0.0 W/m2 CLR
18:32 1.1 °F -3.8 °F 1036.8 in Calm     70 % 0.0 in 0.0 W/m2 CLR
18:37 1.1 °F -3.6 °F 1036.5 in Calm     71 % 0.0 in 0.0 W/m2 CLR
18:42 0.6 °F -3.9 °F 1036.5 in Calm     72 % 0.0 in 0.0 W/m2 CLR
18:47 0.6 °F -3.7 °F 1036.8 in Calm     73 % 0.0 in 0.0 W/m2 CLR
18:53 0.6 °F -3.6 °F 1036.8 in Calm     74 % 0.0 in 0.0 W/m2 CLR
18:58 0.6 °F -3.6 °F 1036.8 in Calm     74 % 0.0 in 0.0 W/m2 CLR
19:03 0.0 °F -3.9 °F 1036.8 in Calm     75 % 0.0 in 0.0 W/m2 CLR
19:08 0.0 °F -3.7 °F 1036.8 in Calm     76 % 0.0 in 0.0 W/m2 CLR
19:13 -0.6 °F -4.3 °F 1036.8 in Calm     76 % 0.0 in 0.0 W/m2 CLR
19:18 -1.1 °F -4.8 °F 1036.8 in Calm     76 % 0.0 in 0.0 W/m2 CLR
19:23 -1.7 °F -5.2 °F 1036.8 in Calm     77 % 0.0 in 0.0 W/m2 CLR
19:28 -1.7 °F -5.2 °F 1036.8 in Calm     77 % 0.0 in 0.0 W/m2 CLR
19:33 -1.7 °F -5.2 °F 1036.8 in Calm     77 % 0.0 in 0.0 W/m2 CLR
19:38 -2.2 °F -5.6 °F 1036.8 in Calm     78 % 0.0 in 0.0 W/m2 CLR
19:43 -1.7 °F -5.0 °F 1036.8 in WSW 5.6 mph 5.6 mph 78 % 0.0 in 0.0 W/m2 CLR
19:48 -2.2 °F -5.4 °F 1036.8 in WSW 7.4 mph 7.4 mph 79 % 0.0 in 0.0 W/m2 CLR
19:53 -2.2 °F -5.4 °F 1036.8 in Calm     79 % 0.0 in 0.0 W/m2 CLR
19:58 -2.2 °F -5.4 °F 1036.8 in Calm     79 % 0.0 in 0.0 W/m2 CLR
20:03 -2.2 °F -5.4 °F 1036.8 in Calm     79 % 0.0 in 0.0 W/m2 CLR
20:08 -2.8 °F -5.9 °F 1036.8 in Calm     79 % 0.0 in 0.0 W/m2 CLR
20:13 -2.8 °F -5.7 °F 1037.1 in Calm     80 % 0.0 in 0.0 W/m2 CLR
20:18 -2.8 °F -5.7 °F 1037.1 in Calm     80 % 0.0 in 0.0 W/m2 CLR
20:23 -2.8 °F -5.7 °F 1036.8 in WSW 1.9 mph 1.9 mph 80 % 0.0 in 0.0 W/m2 CLR
20:28 -3.3 °F -6.3 °F 1037.1 in WSW 3.7 mph 3.7 mph 80 % 0.0 in 0.0 W/m2 CLR
20:33 -3.3 °F -6.1 °F 1037.1 in Calm     81 % 0.0 in 0.0 W/m2 CLR
20:38 -3.3 °F -6.1 °F 1037.1 in Calm     81 % 0.0 in 0.0 W/m2 CLR
20:43 -3.3 °F -6.1 °F 1037.1 in Calm     81 % 0.0 in 0.0 W/m2 CLR
20:48 -3.3 °F -6.1 °F 1037.1 in Calm     81 % 0.0 in 0.0 W/m2 CLR
20:53 -3.3 °F -5.9 °F 1037.1 in Calm     82 % 0.0 in 0.0 W/m2 CLR
20:58 -3.3 °F -5.9 °F 1037.1 in Calm     82 % 0.0 in 0.0 W/m2 CLR
21:08 -3.3 °F -5.9 °F 1037.1 in WSW 5.6 mph 5.6 mph 82 % 0.0 in 0.0 W/m2 CLR
21:13 -3.9 °F -6.3 °F 1037.1 in WSW 8.0 mph 8.0 mph 83 % 0.0 in 0.0 W/m2 CLR
21:18 -3.9 °F -6.2 °F 1037.1 in West 7.4 mph 7.4 mph 84 % 0.0 in 0.0 W/m2 CLR
21:23 -3.9 °F -6.2 °F 1037.1 in Calm     84 % 0.0 in 0.0 W/m2 CLR
21:28 -3.9 °F -6.3 °F 1037.1 in Calm     83 % 0.0 in 0.0 W/m2 CLR
21:33 -3.9 °F -6.3 °F 1037.1 in West 4.8 mph 4.8 mph 83 % 0.0 in 0.0 W/m2 CLR
21:38 -3.9 °F -6.3 °F 1037.1 in WSW 11.1 mph 11.1 mph 83 % 0.0 in 0.0 W/m2 CLR
21:43 -4.4 °F -6.7 °F 1037.1 in WSW 5.6 mph 5.6 mph 84 % 0.0 in 0.0 W/m2 CLR
21:48 -4.4 °F -6.7 °F 1037.1 in Calm     84 % 0.0 in 0.0 W/m2 CLR
21:53 -4.4 °F -6.7 °F 1037.1 in Calm     84 % 0.0 in 0.0 W/m2 CLR
21:59 -4.4 °F -6.7 °F 1037.1 in Calm     84 % 0.0 in 0.0 W/m2 CLR
22:04 -4.4 °F -6.7 °F 1037.1 in WSW 1.9 mph 1.9 mph 84 % 0.0 in 0.0 W/m2 CLR
22:09 -4.4 °F -6.7 °F 1037.1 in WSW 1.9 mph 1.9 mph 84 % 0.0 in 0.0 W/m2 CLR
22:14 -4.4 °F -6.6 °F 1037.1 in WSW 5.6 mph 5.6 mph 85 % 0.0 in 0.0 W/m2 CLR
22:19 -4.4 °F -6.6 °F 1037.1 in Calm     85 % 0.0 in 0.0 W/m2 CLR
22:24 -4.4 °F -6.6 °F 1037.1 in Calm     85 % 0.0 in 0.0 W/m2 CLR
22:29 -4.4 °F -6.6 °F 1037.1 in WSW 1.6 mph 1.6 mph 85 % 0.0 in 0.0 W/m2 CLR
22:34 -4.4 °F -6.6 °F 1037.1 in Calm     85 % 0.0 in 0.0 W/m2 CLR
22:39 -4.4 °F -6.6 °F 1037.1 in West 5.6 mph 5.6 mph 85 % 0.0 in 0.0 W/m2 CLR
22:44 -4.4 °F -6.4 °F 1037.1 in WSW 3.7 mph 3.7 mph 86 % 0.0 in 0.0 W/m2 CLR
22:49 -4.4 °F -6.4 °F 1037.5 in Calm     86 % 0.0 in 0.0 W/m2 CLR
22:54 -4.4 °F -6.4 °F 1037.5 in West 5.6 mph 5.6 mph 86 % 0.0 in 0.0 W/m2 CLR
22:59 -4.4 °F -6.3 °F 1037.5 in West 5.6 mph 5.6 mph 87 % 0.0 in 0.0 W/m2 CLR
23:04 -4.4 °F -6.3 °F 1037.5 in West 5.6 mph 5.6 mph 87 % 0.0 in 0.0 W/m2 CLR
23:09 -4.4 °F -6.4 °F 1037.1 in Calm     86 % 0.0 in 0.0 W/m2 CLR
23:14 -5.0 °F -7.0 °F 1037.5 in Calm     86 % 0.0 in 0.0 W/m2 CLR
23:19 -5.0 °F -7.0 °F 1037.1 in Calm     86 % 0.0 in 0.0 W/m2 CLR
23:24 -5.0 °F -7.0 °F 1037.1 in West 5.6 mph 5.6 mph 86 % 0.0 in 0.0 W/m2 CLR
23:29 -5.0 °F -6.8 °F 1037.1 in West 8.0 mph 8.0 mph 87 % 0.0 in 0.0 W/m2 CLR
23:34 -5.0 °F -6.8 °F 1037.5 in West 6.4 mph 6.4 mph 87 % 0.0 in 0.0 W/m2 CLR
23:39 -5.6 °F -7.4 °F 1037.5 in West 3.7 mph 3.7 mph 87 % 0.0 in 0.0 W/m2 CLR
23:44 -5.6 °F -7.4 °F 1037.5 in Calm     87 % 0.0 in 0.0 W/m2 CLR
23:49 -5.6 °F -7.4 °F 1037.5 in West 3.7 mph 3.7 mph 87 % 0.0 in 0.0 W/m2 CLR
23:54 -5.6 °F -7.4 °F 1037.5 in Calm     87 % 0.0 in 0.0 W/m2 CLR
23:59 -5.6 °F -7.4 °F 1037.5 in WSW 5.6 mph 5.6 mph 87 % 0.0 in 0.0 W/m2 CLR
Lo Temps de Massalio
Compliments of Weather Underground - 1.25 mb